Impacts METAR Board
IDs:

KGUC - Gunnison Arpt, CO, US

Updated at: 0100 UTC 06 Dec 2019
Potential Impact None Slight Moderate High
Time 05/13Z 05/14Z 05/15Z 05/16Z 05/17Z 05/18Z 05/19Z 05/20Z 05/21Z 05/22Z 05/23Z 06/00Z 06/01Z
Temp28 29 28 30 35 38 40 38 38 38 38 35 34
Dewpt25 26 25 26 27 27 26 27 27 26 27 26 26
Altim29.99 30.01 30.03 30.04 30.06 30.07 30.05 30.05 30.07 30.10 30.14 30.18 30.20
VIS10 9 10 10 10 10 10 10 10 10 10 10 10
CIG30 31 49 -- -- 55 -- -- 60 45 45 60 40
CoverOVCOVCOVCFEWSCTOVCSCTSCTBKNOVCOVCBKNOVC
FltCatMVFRVFRVFRVFRVFRVFRVFRVFRVFRVFRVFRVFRVFR
WX---SN----------------------
WDir190400050300230240250230240240
WSpd4 4 0 0 8 5 5 14 15 16 12 9 6
WGst-- -- -- -- -- -- -- 20 21 -- 16 -- --
Raw hourly METARs
KGUC 051256Z AUTO 19004KT 10SM SCT015 OVC030 M02/M04 A2999 RMK AO2 UPE00B17E19B39E44SNB19E39 SLP176 P0000 T10221039 FZRANO
KGUC 051356Z AUTO 04004KT 9SM -SN FEW022 BKN031 OVC055 M02/M03 A3001 RMK AO2 UPB1259E16B47E49SNB16E42B49 SLP187 P0000 T10171033 FZRANO
KGUC 051456Z AUTO 00000KT 10SM SCT040 BKN049 OVC120 M02/M04 A3003 RMK AO2 SNE26 SLP196 P0000 60000 T10221039 53011 FZRANO
KGUC 051556Z AUTO 00000KT 10SM FEW120 M01/M03 A3004 RMK AO2 SLP192 T10111033 FZRANO
KGUC 051656Z AUTO 05008KT 10SM SCT048 02/M03 A3006 RMK AO2 SLP194 T00171028 FZRANO
KGUC 051756Z AUTO 03005KT 10SM BKN055 OVC120 03/M03 A3007 RMK AO2 SLP190 60000 T00331028 10033 21028 51011
KGUC 051856Z AUTO VRB05KT 10SM SCT049 04/M03 A3005 RMK AO2 SLP181 T00441033
KGUC 051956Z AUTO 23014G20KT 10SM SCT055 03/M03 A3005 RMK AO2 SLP182 T00331028
KGUC 052056Z AUTO 24015G21KT 10SM SCT049 BKN060 03/M03 A3007 RMK AO2 SLP186 T00331028 55000
KGUC 052156Z AUTO 25016KT 10SM BKN045 OVC060 03/M03 A3010 RMK AO2 SLP202 T00331033
KGUC 052256Z AUTO 23012G16KT 10SM OVC045 03/M03 A3014 RMK AO2 SLP215 T00331028
KGUC 052356Z AUTO 24009KT 10SM SCT049 BKN060 02/M03 A3018 RMK AO2 SLP232 T00171033 10044 20017 53029 FZRANO
KGUC 060056Z AUTO 24006KT 10SM BKN040 OVC049 01/M03 A3020 RMK AO2 SLP243 T00111033 FZRANO



Page loaded:  01:10 UTC  |   05:10 PM Pacific  |   06:10 PM Mountain  |   07:10 PM Central  |   08:10 PM Eastern

 

ADVISORIES

FORECASTS

FORECASTS

OBSERVATIONS

USER TOOLS

ABOUT US